Time;durP1;ratioP1;P1;durP2;ratioP2;P2;SDS_P1;SDS_P2;PMS_P1;PMS_P2;Temp;Humidity;BMP_temperature;BMP_pressure;BME280_temperature;BME280_humidity;BME280_pressure;Samples;Min_cycle;Max_cycle;Signal;HPM_P1;HPM_P2
2023/04/29 00:00:57;;;;;;;1.88;1.20;;;;;;;10.30;100.00;92795.19;2525600;23;20022;-87
2023/04/29 00:02:03;;;;;;;1.20;1.10;;;;;;;10.28;100.00;92799.44;2540040;23;20012;-86
2023/04/29 00:03:04;;;;;;;3.67;1.35;;;;;;;10.29;100.00;92799.03;2513945;23;20017;-86
2023/04/29 00:04:06;;;;;;;1.75;1.00;;;;;;;10.28;100.00;92799.44;2522873;23;20034;-86
2023/04/29 00:05:08;;;;;;;1.95;1.27;;;;;;;10.24;100.00;92802.22;2537291;23;20009;-84
2023/04/29 00:06:10;;;;;;;1.80;1.08;;;;;;;10.36;100.00;92797.31;2538747;23;20337;-86
2023/04/29 00:07:16;;;;;;;1.27;1.02;;;;;;;10.34;100.00;92801.19;2526137;23;20006;-85
2023/04/29 00:08:17;;;;;;;1.17;1.05;;;;;;;10.30;100.00;92803.19;2524840;23;20016;-85
2023/04/29 00:09:20;;;;;;;1.05;1.05;;;;;;;10.20;100.00;92793.50;2522816;23;20011;-85
2023/04/29 00:10:21;;;;;;;1.27;1.00;;;;;;;10.16;100.00;92797.44;2523727;23;20322;-86
2023/04/29 00:11:22;;;;;;;2.75;0.90;;;;;;;10.22;100.00;92795.75;2526947;23;20002;-86
2023/04/29 00:12:23;;;;;;;1.42;1.20;;;;;;;10.18;100.00;92803.09;2524774;23;20010;-86
2023/04/29 00:13:27;;;;;;;2.30;1.00;;;;;;;10.17;100.00;92801.59;2535049;23;20010;-86
2023/04/29 00:14:28;;;;;;;1.20;1.10;;;;;;;10.15;100.00;92793.28;2512342;23;20002;-86
2023/04/29 00:15:32;;;;;;;1.13;1.02;;;;;;;10.13;100.00;92795.59;2534909;23;20034;-85
2023/04/29 00:16:33;;;;;;;1.77;0.90;;;;;;;10.04;100.00;92804.22;2534222;23;20325;-87
2023/04/29 00:17:38;;;;;;;3.30;1.17;;;;;;;9.98;100.00;92798.63;2521337;23;20010;-85
2023/04/29 00:18:40;;;;;;;2.28;1.00;;;;;;;9.99;100.00;92794.78;2521739;23;20006;-86
2023/04/29 00:19:44;;;;;;;1.40;1.30;;;;;;;9.98;100.00;92797.88;2508917;23;20050;-87
2023/04/29 00:20:45;;;;;;;1.10;0.80;;;;;;;9.93;100.00;92785.78;2510019;23;20013;-86
2023/04/29 00:21:46;;;;;;;1.55;0.88;;;;;;;10.00;100.00;92793.59;2521174;23;20417;-85
2023/04/29 00:22:47;;;;;;;2.28;1.27;;;;;;;10.00;100.00;92798.19;2521438;23;20425;-84
2023/04/29 00:23:48;;;;;;;1.13;1.00;;;;;;;10.04;100.00;92798.88;2533317;23;20009;-85
2023/04/29 00:24:58;;;;;;;1.27;1.17;;;;;;;9.98;100.00;92798.63;2532949;23;20353;-85
2023/04/29 00:26:04;;;;;;;1.15;1.05;;;;;;;10.00;100.00;92798.19;2523628;23;20337;-85
2023/04/29 00:27:06;;;;;;;1.42;1.13;;;;;;;9.98;100.00;92797.88;2509676;23;20062;-86
2023/04/29 00:28:10;;;;;;;1.20;1.10;;;;;;;10.02;100.00;92804.63;2510111;23;20059;-87
2023/04/29 00:29:11;;;;;;;1.25;0.80;;;;;;;10.01;100.00;92805.81;2521929;23;20030;-86
2023/04/29 00:30:12;;;;;;;2.85;1.25;;;;;;;9.97;100.00;92799.81;2520949;23;20029;-85
2023/04/29 00:31:13;;;;;;;1.60;1.00;;;;;;;9.90;100.00;92804.56;2522138;23;20006;-85
2023/04/29 00:32:14;;;;;;;1.55;1.10;;;;;;;9.86;100.00;92799.31;2522230;23;20006;-85
2023/04/29 00:33:15;;;;;;;2.85;1.38;;;;;;;9.91;100.00;92800.72;2521826;23;20050;-86
2023/04/29 00:34:16;;;;;;;0.93;0.93;;;;;;;9.90;100.00;92799.22;2503800;23;20442;-87
2023/04/29 00:35:17;;;;;;;1.77;1.10;;;;;;;9.89;100.00;92798.47;2529830;23;20018;-85
2023/04/29 00:36:23;;;;;;;1.10;0.95;;;;;;;9.87;100.00;92798.13;2522519;23;20003;-86
2023/04/29 00:37:36;;;;;;;1.77;1.10;;;;;;;9.79;100.00;92800.25;2511274;23;20010;-86
2023/04/29 00:38:38;;;;;;;3.33;1.05;;;;;;;9.88;100.00;92796.97;2514477;23;20003;-87
2023/04/29 00:40:00;;;;;;;0.93;0.82;;;;;;;9.82;100.00;92795.97;2521927;23;20002;-87
2023/04/29 00:41:02;;;;;;;1.20;1.10;;;;;;;9.81;100.00;92795.22;2525095;23;20072;-86
2023/04/29 00:42:05;;;;;;;2.65;1.13;;;;;;;9.80;100.00;92799.06;2532462;23;20507;-86
2023/04/29 00:43:06;;;;;;;1.17;0.90;;;;;;;9.75;100.00;92796.91;2531983;23;20340;-85
2023/04/29 00:44:11;;;;;;;1.45;1.20;;;;;;;9.75;100.00;92796.91;2522668;23;20034;-86
2023/04/29 00:45:15;;;;;;;1.05;0.90;;;;;;;9.77;100.00;92805.22;2540631;23;20002;-85
2023/04/29 00:46:16;;;;;;;2.00;0.93;;;;;;;9.80;100.00;92798.31;2516611;23;20017;-85
2023/04/29 00:47:19;;;;;;;3.90;1.20;;;;;;;9.73;100.00;92801.16;2502030;23;20031;-86
2023/04/29 00:48:20;;;;;;;2.78;0.93;;;;;;;9.72;100.00;92791.66;2514278;23;20042;-86
2023/04/29 00:49:23;;;;;;;1.15;1.05;;;;;;;9.66;100.00;92793.28;2511392;23;20351;-85
2023/04/29 00:50:24;;;;;;;1.00;0.90;;;;;;;9.72;100.00;92794.31;2499097;23;19999;-86
2023/04/29 00:51:25;;;;;;;7.20;1.20;;;;;;;9.73;100.00;92795.81;2509850;23;20003;-86
2023/04/29 00:52:33;;;;;;;1.10;1.10;;;;;;;9.71;100.00;92795.50;2534783;23;20077;-85
2023/04/29 00:53:38;;;;;;;0.95;0.95;;;;;;;9.65;100.00;92792.56;2522118;23;20010;-87
2023/04/29 00:54:40;;;;;;;2.75;1.25;;;;;;;9.65;100.00;92799.81;2511543;23;20014;-86
2023/04/29 00:55:46;;;;;;;0.90;0.90;;;;;;;9.67;100.00;92798.22;2510030;23;20010;-87
2023/04/29 00:56:49;;;;;;;1.20;1.10;;;;;;;9.67;100.00;92800.16;2499831;23;20011;-85
2023/04/29 00:57:51;;;;;;;3.38;0.90;;;;;;;9.63;100.00;92797.56;2522715;23;20026;-86
2023/04/29 00:58:52;;;;;;;1.45;0.90;;;;;;;9.60;100.00;92798.38;2534026;23;20089;-86
2023/04/29 01:00:00;;;;;;;3.50;1.00;;;;;;;9.58;100.00;92801.47;2509980;23;20013;-85
2023/04/29 01:01:11;;;;;;;0.90;0.82;;;;;;;9.59;100.00;92797.63;2532091;23;20413;-86
2023/04/29 01:02:13;;;;;;;1.73;1.33;;;;;;;9.57;100.00;92796.56;2512846;23;20418;-86
2023/04/29 01:03:14;;;;;;;2.05;0.80;;;;;;;9.58;100.00;92798.06;2533075;23;20010;-86
2023/04/29 01:04:16;;;;;;;1.35;1.00;;;;;;;9.63;100.00;92792.22;2533550;23;20145;-86
2023/04/29 01:05:18;;;;;;;1.30;1.20;;;;;;;9.62;100.00;92793.41;2533052;23;19998;-86
2023/04/29 01:06:49;;;;;;;2.03;1.10;;;;;;;9.62;100.00;92790.00;2509154;23;20033;-85
2023/04/29 01:08:25;;;;;;;1.15;0.90;;;;;;;9.56;100.00;92782.47;2536729;23;20424;-86
2023/04/29 01:09:46;;;;;;;1.95;1.30;;;;;;;9.57;100.00;92789.31;2525154;23;20018;-85
2023/04/29 01:11:02;;;;;;;1.17;1.08;;;;;;;9.55;100.00;92780.97;2522575;23;20006;-86
2023/04/29 01:12:21;;;;;;;2.65;1.73;;;;;;;9.50;100.00;92784.13;2516569;23;20115;-86
2023/04/29 01:13:59;;;;;;;1.00;1.00;;;;;;;9.48;100.00;92791.81;2516188;23;20464;-86
2023/04/29 01:15:07;;;;;;;1.42;0.90;;;;;;;9.49;100.00;92785.31;2528440;23;20002;-86
2023/04/29 01:16:28;;;;;;;1.98;1.20;;;;;;;9.46;100.00;92786.13;2521712;23;20655;-86
2023/04/29 01:17:44;;;;;;;1.00;0.90;;;;;;;9.44;100.00;92783.16;2508360;23;20352;-85
2023/04/29 01:19:00;;;;;;;1.95;1.00;;;;;;;9.38;100.00;92782.13;2513082;23;20014;-86
2023/04/29 01:20:03;;;;;;;2.55;1.00;;;;;;;9.36;100.00;92781.06;2532541;23;19998;-86
2023/04/29 01:21:06;;;;;;;3.05;1.15;;;;;;;9.38;100.00;92782.13;2520787;23;20014;-86
2023/04/29 01:22:10;;;;;;;0.90;0.90;;;;;;;9.36;100.00;92784.47;2510604;23;20009;-86
2023/04/29 01:23:17;;;;;;;4.03;1.48;;;;;;;9.31;100.00;92776.97;2523468;23;20088;-86
2023/04/29 01:24:18;;;;;;;2.30;1.10;;;;;;;9.31;100.00;92771.63;2521673;23;20006;-86
2023/04/29 01:25:26;;;;;;;1.50;1.00;;;;;;;9.36;100.00;92778.38;2521582;23;20073;-86
2023/04/29 01:26:31;;;;;;;2.55;1.40;;;;;;;9.37;100.00;92779.88;2533894;23;20120;-86
2023/04/29 01:28:08;;;;;;;1.10;1.00;;;;;;;9.36;100.00;92781.06;2534580;23;20002;-85
2023/04/29 01:29:09;;;;;;;1.20;1.10;;;;;;;9.30;100.00;92778.84;2525947;23;20783;-87
2023/04/29 01:30:48;;;;;;;0.90;0.90;;;;;;;9.33;100.00;92782.63;2508592;23;20011;-87
2023/04/29 01:32:18;;;;;;;2.22;1.40;;;;;;;9.32;100.00;92783.78;2520575;23;20014;-87
2023/04/29 01:33:31;;;;;;;2.65;1.00;;;;;;;9.29;100.00;92777.38;2523560;23;20021;-86
2023/04/29 01:34:49;;;;;;;2.03;1.23;;;;;;;9.28;100.00;92781.19;2523983;23;20421;-85
2023/04/29 01:36:05;;;;;;;2.03;1.20;;;;;;;9.27;100.00;92781.63;2516572;23;20053;-87
2023/04/29 01:37:38;;;;;;;2.30;1.20;;;;;;;9.26;100.00;92786.22;2517698;23;20030;-86
2023/04/29 01:38:53;;;;;;;5.25;1.45;;;;;;;9.25;100.00;92775.94;2529565;23;20424;-87
2023/04/29 01:40:19;;;;;;;1.70;1.10;;;;;;;9.22;100.00;92776.75;2521377;23;20010;-87
2023/04/29 01:41:43;;;;;;;2.75;1.20;;;;;;;9.18;100.00;92776.88;2536998;23;20005;-86
2023/04/29 01:43:03;;;;;;;2.78;1.30;;;;;;;9.20;100.00;92776.44;2544432;23;20757;-85
2023/04/29 01:44:07;;;;;;;2.50;1.15;;;;;;;9.15;100.00;92779.59;2520488;23;20010;-86
2023/04/29 01:45:15;;;;;;;2.22;1.02;;;;;;;9.18;100.00;92784.13;2529378;23;20008;-86
2023/04/29 01:46:20;;;;;;;4.20;1.38;;;;;;;9.15;100.00;92785.69;2532959;23;20012;-86
2023/04/29 01:47:22;;;;;;;3.72;1.10;;;;;;;9.16;100.00;92781.84;2534140;23;20030;-86
2023/04/29 01:48:31;;;;;;;3.17;1.38;;;;;;;9.13;100.00;92772.03;2544817;23;20009;-87
2023/04/29 01:49:36;;;;;;;3.67;1.10;;;;;;;9.16;100.00;92786.44;2532136;23;20026;-86
2023/04/29 01:50:46;;;;;;;1.30;1.15;;;;;;;9.19;100.00;92777.59;2522208;23;20027;-86
2023/04/29 01:51:47;;;;;;;2.03;1.20;;;;;;;9.17;100.00;92780.66;2546600;23;20062;-86
2023/04/29 01:52:49;;;;;;;2.15;1.58;;;;;;;9.14;100.00;92778.09;2544713;23;20009;-86
2023/04/29 01:53:53;;;;;;;1.92;1.50;;;;;;;9.15;100.00;92779.59;2533320;23;20424;-86
2023/04/29 01:54:54;;;;;;;3.45;1.42;;;;;;;9.15;100.00;92777.69;2532980;23;20006;-85
2023/04/29 01:55:55;;;;;;;3.33;1.20;;;;;;;9.14;100.00;92775.44;2544739;23;20002;-85
2023/04/29 01:57:08;;;;;;;2.60;1.38;;;;;;;9.12;100.00;92775.84;2532569;23;20040;-85
2023/04/29 01:58:10;;;;;;;3.40;1.05;;;;;;;9.09;100.00;92776.69;2537479;23;20085;-87
2023/04/29 01:59:12;;;;;;;2.90;1.20;;;;;;;9.11;100.00;92787.66;2545319;23;20088;-86
2023/04/29 02:00:13;;;;;;;2.17;1.10;;;;;;;9.08;100.00;92783.91;2533246;23;20018;-86
2023/04/29 02:01:20;;;;;;;0.93;0.93;;;;;;;9.10;100.00;92777.44;2521483;23;20512;-85
2023/04/29 02:02:25;;;;;;;1.33;1.23;;;;;;;9.03;100.00;92773.75;2536676;23;20001;-87
2023/04/29 02:03:26;;;;;;;1.30;1.20;;;;;;;9.02;100.00;92777.56;2532600;23;20502;-87
2023/04/29 02:04:27;;;;;;;2.40;1.40;;;;;;;9.05;100.00;92776.75;2531739;23;20002;-86
2023/04/29 02:05:35;;;;;;;6.57;1.30;;;;;;;9.06;100.00;92772.16;2519924;23;20006;-87
2023/04/29 02:06:44;;;;;;;2.15;1.50;;;;;;;9.04;100.00;92775.25;2520972;23;20014;-87
2023/04/29 02:07:56;;;;;;;1.50;1.40;;;;;;;9.02;100.00;92766.91;2523019;23;20006;-86
2023/04/29 02:09:05;;;;;;;4.30;1.40;;;;;;;9.06;100.00;92769.50;2521742;23;20425;-86
2023/04/29 02:10:15;;;;;;;4.28;1.60;;;;;;;9.04;100.00;92769.94;2535628;23;20042;-87
2023/04/29 02:11:32;;;;;;;2.17;1.27;;;;;;;9.02;100.00;92771.50;2544137;23;20002;-87
2023/04/29 02:12:37;;;;;;;2.88;1.08;;;;;;;9.00;100.00;92773.81;2522460;23;20002;-86
2023/04/29 02:13:42;;;;;;;1.38;1.05;;;;;;;8.97;100.00;92775.41;2520380;23;20483;-86
2023/04/29 02:14:46;;;;;;;1.52;1.40;;;;;;;9.03;100.00;92773.00;2534094;23;20014;-87
2023/04/29 02:15:49;;;;;;;3.47;1.20;;;;;;;8.99;100.00;92773.06;2544393;23;20017;-87
2023/04/29 02:16:51;;;;;;;4.38;1.20;;;;;;;8.99;100.00;92770.41;2532478;23;20010;-86
2023/04/29 02:17:53;;;;;;;2.50;1.17;;;;;;;8.99;100.00;92773.06;2508391;23;20006;-86
2023/04/29 02:20:50;;;;;;;;;;;;;;;9.08;100.00;92765.25;2134811;27;20672;-85
2023/04/29 02:21:51;;;;;;;1.42;1.08;;;;;;;9.18;100.00;92766.19;2107942;28;20419;-84
2023/04/29 02:22:52;;;;;;;2.45;1.30;;;;;;;9.10;100.00;92764.84;2108648;28;20039;-84
2023/04/29 02:23:54;;;;;;;6.70;1.30;;;;;;;9.13;100.00;92769.34;2106759;28;20019;-84
2023/04/29 02:24:55;;;;;;;4.78;1.50;;;;;;;9.06;100.00;92772.91;2105862;28;20028;-84
2023/04/29 02:25:56;;;;;;;2.25;1.08;;;;;;;9.13;100.00;92765.91;2099976;28;20128;-84
2023/04/29 02:26:58;;;;;;;1.58;1.30;;;;;;;9.15;100.00;92771.59;2099226;28;20474;-84
2023/04/29 02:27:59;;;;;;;3.78;1.70;;;;;;;9.13;100.00;92766.69;2093383;28;20510;-84
2023/04/29 02:29:00;;;;;;;2.60;1.30;;;;;;;9.08;100.00;92765.25;2093991;28;20056;-84
2023/04/29 02:30:03;;;;;;;6.93;1.40;;;;;;;9.03;100.00;92773.00;2098634;28;20063;-85
2023/04/29 02:31:04;;;;;;;4.80;1.48;;;;;;;9.08;100.00;92773.25;2100612;28;20111;-85
2023/04/29 02:32:06;;;;;;;1.60;1.30;;;;;;;9.06;100.00;92769.50;2106901;28;20493;-84
2023/04/29 02:33:09;;;;;;;1.30;1.20;;;;;;;9.11;100.00;92769.00;2101595;28;20036;-85
2023/04/29 02:34:10;;;;;;;1.30;1.25;;;;;;;9.05;100.00;92770.69;2100916;28;20028;-84
2023/04/29 02:35:11;;;;;;;2.38;1.30;;;;;;;9.06;100.00;92769.50;2094527;28;20035;-85
2023/04/29 02:36:12;;;;;;;3.10;1.40;;;;;;;9.04;100.00;92769.94;2110839;27;20063;-84
2023/04/29 02:37:14;;;;;;;2.92;1.48;;;;;;;9.00;100.00;92765.81;2115181;28;20653;-84
2023/04/29 02:38:15;;;;;;;4.53;1.50;;;;;;;9.05;100.00;92776.00;2106609;28;20031;-84
2023/04/29 02:39:16;;;;;;;2.55;1.38;;;;;;;9.05;100.00;92765.34;2105934;28;20032;-84
2023/04/29 02:40:17;;;;;;;3.08;1.58;;;;;;;9.04;100.00;92769.94;2098224;28;20017;-84
2023/04/29 02:41:18;;;;;;;1.80;1.48;;;;;;;8.96;100.00;92770.50;2091420;28;20181;-83
2023/04/29 02:42:19;;;;;;;2.15;1.40;;;;;;;9.01;100.00;92767.34;2096960;28;20154;-84
2023/04/29 02:43:20;;;;;;;4.72;1.48;;;;;;;9.00;100.00;92777.25;2089566;28;20483;-84
2023/04/29 02:44:21;;;;;;;2.03;1.35;;;;;;;8.98;100.00;92782.22;2100534;28;20047;-84
2023/04/29 02:45:22;;;;;;;6.82;1.40;;;;;;;9.02;100.00;92774.16;2103455;28;20032;-85
2023/04/29 02:46:23;;;;;;;2.60;1.40;;;;;;;9.00;100.00;92779.91;2100365;28;20621;-85
2023/04/29 02:47:25;;;;;;;4.30;1.33;;;;;;;8.93;100.00;92779.31;2090046;28;20017;-85
2023/04/29 02:48:26;;;;;;;1.73;1.23;;;;;;;8.95;100.00;92774.31;2096757;28;20071;-84
2023/04/29 02:49:27;;;;;;;4.68;1.30;;;;;;;8.94;100.00;92775.47;2105996;28;20027;-84
2023/04/29 02:50:28;;;;;;;2.67;1.25;;;;;;;8.96;100.00;92773.16;2106158;28;20420;-84
2023/04/29 02:51:30;;;;;;;2.67;1.50;;;;;;;8.92;100.00;92773.22;2095868;28;20363;-84
2023/04/29 02:52:33;;;;;;;2.00;1.38;;;;;;;8.86;100.00;92769.53;2106691;28;20032;-85
2023/04/29 02:53:36;;;;;;;2.30;1.30;;;;;;;8.91;100.00;92773.63;2102837;28;20024;-85
2023/04/29 02:54:39;;;;;;;3.90;1.42;;;;;;;8.90;100.00;92774.78;2100992;28;20260;-84
2023/04/29 02:55:40;;;;;;;1.33;1.23;;;;;;;8.87;100.00;92776.38;2094036;28;20567;-83
2023/04/29 02:56:43;;;;;;;2.45;1.65;;;;;;;8.87;100.00;92771.06;2092979;28;20021;-84
2023/04/29 02:57:44;;;;;;;6.55;1.30;;;;;;;8.86;100.00;92774.13;2093747;28;20025;-84
2023/04/29 02:58:45;;;;;;;1.65;1.00;;;;;;;8.84;100.00;92769.22;2094160;28;20021;-85
2023/04/29 02:59:48;;;;;;;1.58;1.13;;;;;;;8.86;100.00;92771.44;2088361;28;20056;-85
2023/04/29 03:00:49;;;;;;;1.20;1.10;;;;;;;8.85;100.00;92769.94;2090151;28;20024;-84
2023/04/29 03:01:52;;;;;;;4.22;1.10;;;;;;;8.88;100.00;92774.47;2108571;28;20499;-85
2023/04/29 03:02:56;;;;;;;5.38;1.40;;;;;;;8.90;100.00;92777.47;2109064;28;20031;-85
2023/04/29 03:03:57;;;;;;;1.20;1.00;;;;;;;8.86;100.00;92774.84;2098528;28;20025;-84
2023/04/29 03:04:58;;;;;;;2.65;1.20;;;;;;;8.87;100.00;92771.06;2088891;28;20315;-84
2023/04/29 03:05:59;;;;;;;1.60;0.90;;;;;;;8.84;100.00;92777.19;2101332;28;20030;-84
2023/04/29 03:07:03;;;;;;;3.03;1.15;;;;;;;8.86;100.00;92774.13;2102198;28;20464;-85
2023/04/29 03:08:04;;;;;;;1.33;1.20;;;;;;;8.81;100.00;92778.00;2103212;28;20081;-84
2023/04/29 03:09:05;;;;;;;5.30;1.60;;;;;;;8.80;100.00;92773.84;2098369;28;20032;-84
2023/04/29 03:10:09;;;;;;;6.68;1.30;;;;;;;8.79;100.00;92780.34;2093119;28;20024;-84
2023/04/29 03:11:10;;;;;;;2.75;1.25;;;;;;;8.70;100.00;92774.84;2101774;28;20020;-85
2023/04/29 03:12:11;;;;;;;5.00;1.20;;;;;;;8.71;100.00;92776.31;2109341;28;20024;-84
2023/04/29 03:13:12;;;;;;;2.97;1.30;;;;;;;8.74;100.00;92767.53;2107277;28;20024;-84
2023/04/29 03:14:14;;;;;;;2.40;1.23;;;;;;;8.76;100.00;92778.50;2102415;28;20517;-84
2023/04/29 03:15:15;;;;;;;2.85;1.40;;;;;;;8.75;100.00;92771.69;2099520;28;20042;-85
2023/04/29 03:16:16;;;;;;;2.38;1.33;;;;;;;8.75;100.00;92771.69;2094832;28;20039;-84
2023/04/29 03:17:17;;;;;;;1.88;1.52;;;;;;;8.74;100.00;92772.84;2098170;28;20024;-85
2023/04/29 03:18:18;;;;;;;3.15;1.50;;;;;;;8.76;100.00;92773.91;2099931;28;20055;-84
2023/04/29 03:19:19;;;;;;;5.47;1.40;;;;;;;8.74;100.00;92773.59;2102689;28;20337;-84
2023/04/29 03:20:20;;;;;;;1.55;1.45;;;;;;;8.74;100.00;92768.25;2100311;28;20143;-84
2023/04/29 03:21:21;;;;;;;1.10;1.00;;;;;;;8.75;100.00;92766.34;2104182;28;20036;-84
2023/04/29 03:22:22;;;;;;;5.93;1.10;;;;;;;8.71;100.00;92768.34;2105177;28;20029;-84
2023/04/29 03:23:23;;;;;;;4.25;1.20;;;;;;;8.71;100.00;92771.00;2109735;28;20032;-84
2023/04/29 03:24:24;;;;;;;1.70;1.30;;;;;;;8.75;100.00;92758.34;2110216;28;20024;-84
2023/04/29 03:25:25;;;;;;;7.70;1.30;;;;;;;8.68;100.00;92759.25;2089792;28;20067;-85
2023/04/29 03:26:26;;;;;;;1.77;1.10;;;;;;;8.70;100.00;92761.50;2089903;28;20627;-84
2023/04/29 03:27:27;;;;;;;1.40;1.30;;;;;;;8.76;100.00;92759.84;2090178;28;20032;-84
2023/04/29 03:28:28;;;;;;;1.45;1.02;;;;;;;8.75;100.00;92758.34;2100747;28;20031;-85
2023/04/29 03:29:30;;;;;;;1.80;1.20;;;;;;;8.68;100.00;92753.16;2098249;28;20521;-84
2023/04/29 03:30:31;;;;;;;3.42;1.20;;;;;;;8.67;100.00;92746.34;2104041;28;20039;-84
2023/04/29 03:31:33;;;;;;;0.93;0.90;;;;;;;8.66;100.00;92750.16;2098444;28;20477;-84
2023/04/29 03:32:34;;;;;;;3.15;1.30;;;;;;;8.65;100.00;92757.41;2096010;28;20021;-84
2023/04/29 03:33:35;;;;;;;2.13;1.30;;;;;;;8.62;100.00;92741.50;2089982;28;20079;-84
2023/04/29 03:34:36;;;;;;;4.85;1.10;;;;;;;8.62;100.00;92750.25;2088428;28;20032;-84
2023/04/29 03:35:37;;;;;;;3.05;1.65;;;;;;;8.61;100.00;92751.41;2091497;28;20052;-85
2023/04/29 03:36:38;;;;;;;4.00;1.40;;;;;;;8.59;100.00;92743.06;2088842;28;20052;-85
2023/04/29 03:37:43;;;;;;;1.98;1.10;;;;;;;8.60;100.00;92752.56;2088317;28;20021;-84
2023/04/29 03:38:44;;;;;;;1.65;1.02;;;;;;;8.53;100.00;92760.69;2089042;28;20055;-84
2023/04/29 03:39:45;;;;;;;1.25;1.15;;;;;;;8.48;100.00;92753.94;2094431;28;20023;-84
2023/04/29 03:40:46;;;;;;;4.03;1.45;;;;;;;8.51;100.00;92758.44;2104383;28;20107;-85
2023/04/29 03:41:47;;;;;;;4.85;1.35;;;;;;;8.46;100.00;92758.16;2093175;28;20032;-85
2023/04/29 03:42:48;;;;;;;5.18;1.30;;;;;;;8.39;100.00;92759.06;2100188;28;20035;-84
2023/04/29 03:43:50;;;;;;;3.25;1.38;;;;;;;8.43;100.00;92757.09;2095546;28;20055;-84
2023/04/29 03:44:51;;;;;;;1.52;1.42;;;;;;;8.47;100.00;92757.78;2081694;28;20416;-84
2023/04/29 03:45:52;;;;;;;2.20;1.23;;;;;;;8.43;100.00;92749.09;2095029;28;20086;-84
2023/04/29 03:46:54;;;;;;;2.85;1.35;;;;;;;8.48;100.00;92753.94;2100206;28;20016;-85
2023/04/29 03:47:55;;;;;;;4.57;1.30;;;;;;;8.46;100.00;92756.25;2096313;28;20111;-84
2023/04/29 03:48:57;;;;;;;1.90;1.50;;;;;;;8.52;100.00;92754.63;2096181;28;20021;-84
2023/04/29 03:49:58;;;;;;;3.45;1.70;;;;;;;8.49;100.00;92752.03;2090626;28;20087;-84
2023/04/29 03:51:00;;;;;;;2.28;1.50;;;;;;;8.47;100.00;92752.44;2092069;28;20075;-84
2023/04/29 03:52:03;;;;;;;3.67;1.55;;;;;;;8.47;100.00;92741.78;2087036;28;20017;-84
2023/04/29 03:53:05;;;;;;;4.80;1.40;;;;;;;8.46;100.00;92745.59;2085063;28;20519;-84
2023/04/29 03:54:06;;;;;;;4.15;1.50;;;;;;;8.40;100.00;92749.91;2095680;28;20035;-84
2023/04/29 03:55:07;;;;;;;1.77;1.45;;;;;;;8.41;100.00;92751.41;2103524;28;20026;-85
2023/04/29 03:56:10;;;;;;;5.18;1.67;;;;;;;8.44;100.00;92753.25;2094471;28;20024;-84
2023/04/29 03:57:11;;;;;;;9.55;1.80;;;;;;;8.40;100.00;92749.91;2090322;28;20103;-84
2023/04/29 03:58:13;;;;;;;3.75;1.45;;;;;;;8.37;100.00;92744.66;2096594;28;20028;-84
2023/04/29 03:59:14;;;;;;;3.17;1.30;;;;;;;8.36;100.00;92749.19;2092037;28;20028;-84
2023/04/29 04:00:15;;;;;;;2.10;1.38;;;;;;;8.30;100.00;92751.59;2102591;28;20119;-85
2023/04/29 04:01:17;;;;;;;1.38;1.27;;;;;;;8.31;100.00;92755.75;2099812;28;20584;-84
2023/04/29 04:02:18;;;;;;;1.70;1.30;;;;;;;8.31;100.00;92742.44;2085485;28;20024;-84
2023/04/29 04:03:19;;;;;;;2.63;1.63;;;;;;;8.27;100.00;92749.75;2098204;28;20024;-85
2023/04/29 04:04:20;;;;;;;4.85;1.40;;;;;;;8.22;100.00;92754.81;2092166;28;20088;-85
2023/04/29 04:05:24;;;;;;;5.25;1.60;;;;;;;8.19;100.00;92745.72;2098205;28;20027;-84
2023/04/29 04:06:25;;;;;;;2.55;1.23;;;;;;;8.24;100.00;92747.88;2092637;28;20025;-85
2023/04/29 04:07:25;;;;;;;1.63;1.27;;;;;;;8.20;100.00;92743.78;2088138;28;20029;-84
2023/04/29 04:08:26;;;;;;;3.13;1.40;;;;;;;8.17;100.00;92740.06;2087445;28;20467;-84
2023/04/29 04:09:27;;;;;;;6.68;1.70;;;;;;;8.16;100.00;92751.09;2092957;28;20029;-84
2023/04/29 04:10:28;;;;;;;3.22;1.55;;;;;;;8.17;100.00;92736.66;2102508;28;20019;-84
2023/04/29 04:11:29;;;;;;;4.82;1.77;;;;;;;8.13;100.00;92739.38;2095878;28;20051;-84
2023/04/29 04:12:30;;;;;;;3.45;1.80;;;;;;;8.04;100.00;92739.16;2083160;28;20032;-85
2023/04/29 04:13:31;;;;;;;2.95;1.90;;;;;;;8.07;100.00;92744.41;2083544;28;20025;-85
2023/04/29 04:14:33;;;;;;;7.07;1.80;;;;;;;8.06;100.00;92747.47;2104250;28;20028;-85
2023/04/29 04:15:34;;;;;;;2.22;1.60;;;;;;;7.99;100.00;92740.38;2088899;28;20095;-84
2023/04/29 04:16:38;;;;;;;3.50;2.15;;;;;;;8.03;100.00;92740.28;2096593;28;20461;-84
2023/04/29 04:17:39;;;;;;;8.20;2.30;;;;;;;8.07;100.00;92741.72;2092141;28;20080;-84
2023/04/29 04:18:40;;;;;;;3.47;1.90;;;;;;;8.04;100.00;92744.47;2092151;28;20017;-84
2023/04/29 04:19:42;;;;;;;2.13;2.00;;;;;;;8.02;100.00;92752.84;2094093;28;20024;-84
2023/04/29 04:20:44;;;;;;;3.42;2.38;;;;;;;8.08;100.00;92753.16;2084707;28;20533;-84
2023/04/29 04:21:46;;;;;;;2.20;1.98;;;;;;;8.02;100.00;92752.09;2092296;28;20335;-84
2023/04/29 04:22:48;;;;;;;4.32;2.30;;;;;;;8.02;100.00;92752.84;2095768;28;20040;-85
2023/04/29 04:23:50;;;;;;;2.88;2.05;;;;;;;8.01;100.00;92756.69;2099760;28;20024;-84
2023/04/29 04:24:53;;;;;;;3.60;2.35;;;;;;;8.03;100.00;92748.28;2094061;28;20500;-84
2023/04/29 04:25:54;;;;;;;6.75;2.58;;;;;;;8.11;100.00;92748.91;2085713;28;20029;-85
2023/04/29 04:26:55;;;;;;;6.57;2.65;;;;;;;8.04;100.00;92741.81;2095305;28;20414;-85
2023/04/29 04:27:56;;;;;;;11.07;3.10;;;;;;;8.18;100.00;92746.13;2094709;28;20031;-84
2023/04/29 04:28:57;;;;;;;4.25;2.67;;;;;;;8.39;100.00;92742.34;2083271;28;20025;-84
2023/04/29 04:29:58;;;;;;;4.60;2.92;;;;;;;8.41;100.00;92745.34;2095879;28;20029;-84
2023/04/29 04:31:02;;;;;;;6.38;3.05;;;;;;;8.34;100.00;92746.22;2084243;28;20411;-84
2023/04/29 04:32:04;;;;;;;6.85;3.00;;;;;;;8.23;100.00;92748.31;2083849;28;20078;-84
2023/04/29 04:33:05;;;;;;;6.97;3.15;;;;;;;8.23;100.00;92753.63;2082511;28;20021;-84
2023/04/29 04:34:06;;;;;;;4.18;2.97;;;;;;;8.21;100.00;92759.38;2087556;28;20501;-84
2023/04/29 04:35:07;;;;;;;2.97;2.50;;;;;;;8.21;100.00;92754.06;2088095;28;20386;-84
2023/04/29 04:36:08;;;;;;;7.43;2.70;;;;;;;8.25;100.00;92754.75;2091325;28;20286;-85
2023/04/29 04:37:10;;;;;;;3.25;2.80;;;;;;;8.37;100.00;92764.03;2103795;28;20488;-84
2023/04/29 04:38:11;;;;;;;5.13;3.25;;;;;;;8.38;100.00;92765.53;2111952;28;20501;-83
2023/04/29 04:39:12;;;;;;;5.57;3.13;;;;;;;8.44;100.00;92763.16;2095406;28;20024;-85
2023/04/29 04:40:13;;;;;;;4.63;3.53;;;;;;;8.42;100.00;92776.88;2094678;28;20037;-84
2023/04/29 04:41:14;;;;;;;5.45;3.40;;;;;;;8.54;100.00;92775.50;2080942;28;20467;-84
2023/04/29 04:42:15;;;;;;;7.30;3.45;;;;;;;8.54;100.00;92770.94;2099789;28;20048;-85
2023/04/29 04:43:16;;;;;;;4.03;3.20;;;;;;;8.46;100.00;92772.22;2095469;28;20035;-84
2023/04/29 04:44:17;;;;;;;9.18;3.45;;;;;;;8.50;100.00;92764.94;2088449;28;20060;-84
2023/04/29 04:45:18;;;;;;;6.10;3.92;;;;;;;8.53;100.00;92769.44;2093613;28;20039;-84
2023/04/29 04:46:19;;;;;;;3.80;3.50;;;;;;;8.45;100.00;92767.31;2084540;28;20021;-83
2023/04/29 04:47:20;;;;;;;5.57;3.70;;;;;;;8.45;100.00;92767.31;2084425;28;20032;-84
2023/04/29 04:48:21;;;;;;;4.35;3.50;;;;;;;8.44;100.00;92766.56;2085279;28;20029;-84
2023/04/29 04:49:24;;;;;;;5.30;3.47;;;;;;;8.45;100.00;92773.41;2087808;28;20027;-83
2023/04/29 04:50:28;;;;;;;8.57;3.20;;;;;;;8.51;100.00;92763.75;2107524;27;20050;-84
2023/04/29 04:51:29;;;;;;;5.78;3.10;;;;;;;8.53;100.00;92776.69;2099657;28;20029;-84
2023/04/29 04:52:30;;;;;;;5.38;3.22;;;;;;;8.49;100.00;92776.00;2087014;28;20238;-84
2023/04/29 04:53:31;;;;;;;4.20;2.72;;;;;;;8.57;100.00;92778.13;2091661;28;20020;-84
2023/04/29 04:54:34;;;;;;;3.95;2.95;;;;;;;8.54;100.00;92778.94;2091267;28;20032;-84
2023/04/29 04:55:36;;;;;;;6.32;2.92;;;;;;;8.61;100.00;92785.28;2107837;28;20543;-84
2023/04/29 04:56:38;;;;;;;4.97;3.10;;;;;;;8.67;100.00;92773.72;2104189;28;20122;-83
2023/04/29 04:57:39;;;;;;;3.42;2.92;;;;;;;8.69;100.00;92776.75;2099650;28;20388;-85
2023/04/29 04:58:40;;;;;;;5.20;3.25;;;;;;;8.79;100.00;92775.78;2111858;28;20103;-84
2023/04/29 04:59:41;;;;;;;6.28;3.90;;;;;;;9.12;100.00;92780.41;2099126;28;20481;-83
2023/04/29 05:00:45;;;;;;;4.38;3.97;;;;;;;9.10;100.00;92772.84;2092639;28;20123;-84
2023/04/29 05:01:46;;;;;;;7.93;4.05;;;;;;;9.14;100.00;92770.84;2088577;28;20056;-84
2023/04/29 05:02:47;;;;;;;8.18;4.05;;;;;;;9.23;100.00;92770.28;2087336;28;20028;-84
2023/04/29 05:03:49;;;;;;;6.57;4.80;;;;;;;9.44;100.00;92777.03;2087408;28;20112;-83